Time;durP1;ratioP1;P1;durP2;ratioP2;P2;SDS_P1;SDS_P2;PMS_P1;PMS_P2;Temp;Humidity;BMP_temperature;BMP_pressure;BME280_temperature;BME280_humidity;BME280_pressure;Samples;Min_cycle;Max_cycle;Signal;HPM_P1;HPM_P2
2023/10/17 00:06:59;;;;;;;21.60;9.20;;;;;;;4.72;100.00;100742.83;667143;1267;138579;-80
2023/10/17 00:22:02;;;;;;;20.90;9.20;;;;;;;4.57;100.00;100745.17;667319;1267;138979;-81
2023/10/17 00:37:10;;;;;;;21.30;11.30;;;;;;;4.25;100.00;100745.55;666465;1267;139281;-80
2023/10/17 00:52:26;;;;;;;18.00;8.10;;;;;;;4.14;100.00;100746.15;666972;1267;139509;-80
2023/10/17 01:07:29;;;;;;;36.40;14.80;;;;;;;4.21;100.00;100755.83;666734;1264;138731;-79
2023/10/17 01:22:36;;;;;;;25.00;11.20;;;;;;;3.98;100.00;100753.77;666585;1267;140129;-80
2023/10/17 01:37:40;;;;;;;20.00;9.90;;;;;;;3.64;100.00;100759.15;667460;1264;140038;-79
2023/10/17 01:52:44;;;;;;;19.80;9.40;;;;;;;3.31;100.00;100762.88;667838;1262;139114;-80
2023/10/17 02:07:48;;;;;;;21.70;9.90;;;;;;;3.14;100.00;100769.25;667405;1263;138990;-80
2023/10/17 02:22:51;;;;;;;20.40;9.70;;;;;;;3.02;100.00;100767.58;666897;1264;138645;-80
2023/10/17 02:37:59;;;;;;;19.60;9.90;;;;;;;2.85;100.00;100783.80;667167;1268;139351;-80
2023/10/17 02:53:02;;;;;;;23.60;10.80;;;;;;;2.73;100.00;100782.78;668903;1268;140098;-80
2023/10/17 03:08:10;;;;;;;22.00;11.10;;;;;;;2.55;100.00;100779.83;670341;1267;140223;-80
2023/10/17 03:23:15;;;;;;;25.80;12.90;;;;;;;2.55;100.00;100784.33;667112;1263;140348;-80
2023/10/17 03:38:20;;;;;;;33.20;14.80;;;;;;;2.51;100.00;100786.59;667591;1267;140576;-80
2023/10/17 03:53:31;;;;;;;24.60;12.30;;;;;;;2.39;100.00;100793.86;667053;1267;140172;-80
2023/10/17 04:08:48;;;;;;;32.60;15.30;;;;;;;2.23;100.00;100802.36;667637;1269;139678;-79
2023/10/17 04:23:55;;;;;;;26.20;11.40;;;;;;;2.47;100.00;100808.85;667613;1267;139951;-79
2023/10/17 04:39:18;;;;;;;28.70;12.40;;;;;;;2.76;100.00;100804.42;667357;1262;139636;-79
2023/10/17 06:41:28;;;;;;;54.30;24.20;;;;;;;3.74;100.00;100894.31;666865;1268;139010;-79
2023/10/17 06:56:38;;;;;;;73.30;32.30;;;;;;;4.15;100.00;100904.49;666378;1268;139435;-79
2023/10/17 07:11:43;;;;;;;51.60;22.40;;;;;;;4.31;100.00;100918.10;667552;1266;138997;-78
2023/10/17 07:26:49;;;;;;;50.40;23.80;;;;;;;4.53;100.00;100921.61;666967;1272;139776;-79
2023/10/17 07:41:55;;;;;;;52.00;22.60;;;;;;;4.74;100.00;100914.27;667743;1266;139023;-79
2023/10/17 07:56:59;;;;;;;57.00;22.30;;;;;;;5.06;100.00;100924.48;666898;1273;140263;-79
2023/10/17 08:12:05;;;;;;;35.00;16.80;;;;;;;5.82;100.00;100937.91;673548;1267;137919;-81
2023/10/17 08:27:29;;;;;;;172.60;48.90;;;;;;;7.21;100.00;100943.02;667874;1267;140949;-81
2023/10/17 08:42:38;;;;;;;94.50;46.90;;;;;;;7.78;100.00;100948.27;668067;1266;139037;-80
2023/10/17 08:57:41;;;;;;;41.60;23.70;;;;;;;8.05;100.00;100953.77;667731;1268;139892;-79
2023/10/17 09:13:14;;;;;;;30.80;19.50;;;;;;;10.64;100.00;100949.60;667693;1266;140044;-82
2023/10/17 09:28:19;;;;;;;217.90;76.50;;;;;;;13.02;94.56;100948.83;668740;1277;140128;-83
2023/10/17 09:43:23;;;;;;;25.50;15.60;;;;;;;14.31;84.91;100944.33;667886;1267;139476;-82
2023/10/17 09:58:33;;;;;;;19.90;12.40;;;;;;;15.73;80.45;100932.27;669006;1267;138777;-81
2023/10/17 10:13:55;;;;;;;;;;;;;;;16.01;75.44;100925.63;667657;1266;138971;-80
2023/10/17 10:29:22;;;;;;;8.10;6.00;;;;;;;15.92;71.23;100921.40;668263;1269;124542;-81
2023/10/17 10:44:26;;;;;;;15.60;8.20;;;;;;;15.33;69.61;100901.80;668303;1269;139442;-81
2023/10/17 10:59:30;;;;;;;32.50;11.20;;;;;;;14.23;71.13;100881.92;666958;1271;149780;-80
2023/10/17 11:14:33;;;;;;;19.10;7.80;;;;;;;13.48;72.20;100863.66;667008;1269;139361;-79
2023/10/17 11:29:38;;;;;;;47.60;19.00;;;;;;;11.70;74.30;100838.15;666700;1279;138348;-80
2023/10/17 11:44:42;;;;;;;18.40;6.40;;;;;;;12.54;73.83;100824.72;668243;1269;138962;-80
2023/10/17 11:59:53;;;;;;;8.90;5.30;;;;;;;13.19;68.78;100820.74;666805;1263;139532;-81
2023/10/17 12:14:57;;;;;;;8.50;3.40;;;;;;;13.12;66.13;100807.70;666565;1266;138535;-81
2023/10/17 12:30:01;;;;;;;61.90;35.30;;;;;;;13.06;65.69;100805.06;666922;1269;138210;-81
2023/10/17 12:45:05;;;;;;;17.40;8.20;;;;;;;12.88;65.13;100793.88;666737;1272;139174;-80
2023/10/17 13:00:09;;;;;;;16.10;6.30;;;;;;;12.69;64.95;100792.86;671430;1269;138641;-81
2023/10/17 13:15:16;;;;;;;16.50;6.40;;;;;;;12.30;66.47;100793.66;672785;1263;139929;-82
2023/10/17 13:30:20;;;;;;;15.10;5.80;;;;;;;12.51;67.74;100781.84;669387;1272;140192;-82
2023/10/17 13:45:23;;;;;;;11.50;5.40;;;;;;;12.44;66.83;100766.14;667857;1276;139037;-82
2023/10/17 14:00:43;;;;;;;17.40;7.40;;;;;;;11.64;67.95;100747.73;670421;1264;138790;-83
2023/10/17 14:15:47;;;;;;;30.20;12.30;;;;;;;11.24;67.87;100732.02;670688;1266;138861;-81
2023/10/17 14:30:51;;;;;;;13.00;6.20;;;;;;;11.08;68.12;100725.09;672370;1265;140614;-81
2023/10/17 14:45:55;;;;;;;14.20;6.70;;;;;;;11.01;68.98;100729.72;668448;1265;139696;-81
2023/10/17 15:00:58;;;;;;;51.80;24.60;;;;;;;10.74;69.58;100733.52;668352;1266;140230;-81
2023/10/17 15:16:02;;;;;;;68.10;28.30;;;;;;;10.41;70.79;100728.03;670416;1264;139377;-81
2023/10/17 15:31:08;;;;;;;36.10;16.50;;;;;;;10.08;71.69;100719.33;669838;1264;139256;-81
2023/10/17 15:46:15;;;;;;;83.80;23.90;;;;;;;9.33;73.43;100716.71;670044;1265;139336;-82
2023/10/17 16:01:19;;;;;;;80.50;37.00;;;;;;;8.59;75.47;100715.33;669751;1264;139653;-81
2023/10/17 16:16:24;;;;;;;32.30;16.50;;;;;;;7.92;77.33;100716.44;668955;1265;139993;-80
2023/10/17 16:31:28;;;;;;;32.20;17.00;;;;;;;7.41;78.74;100724.58;671847;1265;139492;-81
2023/10/17 16:46:31;;;;;;;211.20;69.60;;;;;;;6.92;80.16;100724.16;670503;1265;140142;-81
2023/10/17 17:01:35;;;;;;;33.90;14.90;;;;;;;6.57;81.14;100710.27;670896;1266;139370;-81
2023/10/17 17:16:38;;;;;;;41.90;20.90;;;;;;;6.44;82.30;100706.38;670404;1265;139076;-80
2023/10/17 17:31:42;;;;;;;65.20;28.80;;;;;;;6.24;83.97;100703.33;669966;1265;139830;-81
2023/10/17 17:46:47;;;;;;;106.30;49.10;;;;;;;5.91;85.20;100703.27;668693;1261;140938;-81
2023/10/17 18:01:50;;;;;;;68.90;25.90;;;;;;;5.77;86.91;100698.89;674255;1265;140548;-81
2023/10/17 18:16:54;;;;;;;64.90;28.10;;;;;;;5.77;87.91;100677.17;669202;1264;139038;-80
2023/10/17 18:31:58;;;;;;;67.60;28.80;;;;;;;5.57;88.04;100676.54;667775;1265;139235;-81
2023/10/17 18:47:02;;;;;;;72.40;32.20;;;;;;;5.26;88.44;100675.92;668912;1266;139157;-79
2023/10/17 19:02:05;;;;;;;93.70;46.50;;;;;;;5.19;90.01;100668.54;668345;1260;140281;-81
2023/10/17 19:17:09;;;;;;;68.80;31.90;;;;;;;5.09;89.36;100659.94;668743;1266;138927;-82
2023/10/17 19:32:14;;;;;;;68.30;29.10;;;;;;;4.86;90.25;100665.27;668715;1267;139000;-82
2023/10/17 19:47:18;;;;;;;32.40;14.10;;;;;;;5.32;90.52;100656.00;668657;1262;140641;-82
2023/10/17 20:02:21;;;;;;;22.10;11.60;;;;;;;5.43;91.14;100643.55;669431;1265;139620;-82
2023/10/17 20:17:25;;;;;;;29.80;12.90;;;;;;;5.62;92.39;100645.14;669232;1264;139026;-81
2023/10/17 20:32:28;;;;;;;40.70;16.40;;;;;;;6.03;92.02;100639.48;669346;1275;139513;-82
2023/10/17 20:47:32;;;;;;;54.70;22.90;;;;;;;6.11;91.89;100635.04;668739;1263;139275;-82
2023/10/17 21:02:37;;;;;;;67.20;30.30;;;;;;;6.02;93.85;100628.43;670238;1265;139350;-81
2023/10/17 21:17:41;;;;;;;37.60;23.80;;;;;;;6.06;93.62;100605.68;668778;1263;138917;-81
2023/10/17 21:32:46;;;;;;;26.20;11.00;;;;;;;5.96;93.63;100587.11;668661;1264;139122;-80
2023/10/17 21:47:50;;;;;;;23.60;9.80;;;;;;;5.80;93.74;100581.69;668459;1279;139189;-80
2023/10/17 22:02:55;;;;;;;19.50;9.90;;;;;;;5.54;93.97;100581.25;668915;1270;139638;-80
2023/10/17 22:17:59;;;;;;;22.70;12.20;;;;;;;5.37;95.71;100566.86;670345;1264;138596;-80
2023/10/17 22:33:04;;;;;;;23.30;11.40;;;;;;;5.29;95.37;100563.73;668610;1278;139506;-81
2023/10/17 22:48:09;;;;;;;22.30;10.70;;;;;;;5.00;95.72;100555.58;673859;1264;143867;-81
2023/10/17 23:03:12;;;;;;;19.50;9.90;;;;;;;4.84;97.06;100547.33;668195;1264;139180;-81
2023/10/17 23:18:16;;;;;;;21.70;10.10;;;;;;;4.95;97.54;100538.05;669979;1263;139318;-81
2023/10/17 23:33:19;;;;;;;19.20;10.00;;;;;;;5.24;98.55;100532.63;668644;1262;140205;-82
2023/10/17 23:48:29;;;;;;;16.10;8.90;;;;;;;5.48;97.58;100530.80;668225;1261;139391;-80
